createdAt,value
2023-01-15T00:02:22.230Z,10.75
2023-01-15T00:04:51.998Z,10.74
2023-01-15T00:07:19.003Z,10.76
2023-01-15T00:09:45.943Z,10.78
2023-01-15T00:12:12.707Z,10.79
2023-01-15T00:14:39.997Z,10.78
2023-01-15T00:17:06.825Z,10.77
2023-01-15T00:19:33.765Z,10.79
2023-01-15T00:22:00.541Z,10.82
2023-01-15T00:24:46.122Z,10.78
2023-01-15T00:27:31.373Z,10.83
2023-01-15T00:29:58.225Z,10.83
2023-01-15T00:32:27.672Z,10.82
2023-01-15T00:34:54.401Z,10.83
2023-01-15T00:37:21.589Z,10.81
2023-01-15T00:39:49.187Z,10.83
2023-01-15T00:42:17.537Z,10.85
2023-01-15T00:44:44.422Z,10.87
2023-01-15T00:47:14.950Z,10.86
2023-01-15T00:49:42.715Z,10.86
2023-01-15T00:52:11.032Z,10.87
2023-01-15T00:54:37.829Z,10.90
2023-01-15T00:57:05.590Z,10.95
2023-01-15T00:59:38.224Z,10.96
2023-01-15T01:02:05.154Z,10.94
2023-01-15T01:04:32.253Z,10.93
2023-01-15T01:06:59.097Z,10.94
2023-01-15T01:09:25.947Z,10.94
2023-01-15T01:11:52.758Z,11.04
2023-01-15T01:14:19.627Z,11.10
2023-01-15T01:16:46.465Z,11.12
2023-01-15T01:19:16.893Z,11.12
2023-01-15T01:21:44.719Z,11.20
2023-01-15T01:24:13.717Z,11.17
2023-01-15T01:26:44.095Z,11.14
2023-01-15T01:29:13.381Z,11.21
2023-01-15T01:31:40.230Z,11.20
2023-01-15T01:34:07.451Z,11.16
2023-01-15T01:36:38.286Z,11.20
2023-01-15T01:39:07.042Z,11.17
2023-01-15T01:41:34.491Z,11.14
2023-01-15T01:44:02.875Z,11.15
2023-01-15T01:46:32.995Z,11.13
2023-01-15T01:49:09.847Z,11.12
2023-01-15T01:51:41.281Z,11.20
2023-01-15T01:54:10.905Z,11.24
2023-01-15T01:56:37.825Z,11.24
2023-01-15T01:59:06.822Z,11.25
2023-01-15T02:01:34.484Z,11.28
2023-01-15T02:04:02.593Z,11.26
2023-01-15T02:06:30.244Z,11.34
2023-01-15T02:08:57.251Z,11.35
2023-01-15T02:11:24.642Z,11.38
2023-01-15T02:14:14.567Z,11.37
2023-01-15T02:16:52.137Z,11.34
2023-01-15T02:19:49.652Z,11.32
2023-01-15T02:22:29.470Z,11.24
2023-01-15T02:24:56.168Z,11.23
2023-01-15T02:27:24.611Z,11.25
2023-01-15T02:30:22.884Z,11.25
2023-01-15T02:32:59.685Z,11.22
2023-01-15T02:35:36.814Z,11.24
2023-01-15T02:38:07.387Z,11.30
2023-01-15T02:40:36.221Z,11.33
2023-01-15T02:43:05.141Z,11.36
2023-01-15T02:45:36.097Z,11.33
2023-01-15T02:48:09.404Z,11.31
2023-01-15T02:50:42.671Z,11.32
2023-01-15T02:53:14.703Z,11.31
2023-01-15T02:55:49.320Z,11.32
2023-01-15T02:58:24.165Z,11.28
2023-01-15T03:00:54.631Z,11.25
2023-01-15T03:03:41.009Z,11.45
2023-01-15T03:06:18.480Z,11.58
2023-01-15T03:08:45.899Z,11.55
2023-01-15T03:11:15.466Z,11.56
2023-01-15T03:14:01.059Z,11.55
2023-01-15T03:16:55.672Z,11.52
2023-01-15T03:19:58.133Z,11.53
2023-01-15T03:22:34.828Z,11.55
2023-01-15T03:25:11.974Z,11.62
2023-01-15T03:27:38.890Z,11.65
2023-01-15T03:30:07.688Z,11.60
2023-01-15T03:32:34.885Z,11.61
2023-01-15T03:35:04.027Z,11.59
2023-01-15T03:37:31.696Z,11.61
2023-01-15T03:39:59.292Z,11.56
2023-01-15T03:42:47.652Z,11.53
2023-01-15T03:45:23.490Z,11.51
2023-01-15T03:48:05.441Z,11.60
2023-01-15T03:50:37.819Z,11.65
2023-01-15T03:53:18.550Z,11.61
2023-01-15T03:56:12.493Z,11.63
2023-01-15T03:58:47.596Z,11.64
2023-01-15T04:01:18.884Z,11.62
2023-01-15T04:03:48.879Z,11.63
2023-01-15T04:06:15.725Z,11.68
2023-01-15T04:08:44.718Z,11.68
2023-01-15T04:11:11.435Z,11.62
2023-01-15T04:13:38.637Z,11.63
2023-01-15T04:16:05.740Z,11.63
2023-01-15T04:18:32.517Z,11.63
2023-01-15T04:20:59.316Z,11.60
2023-01-15T04:23:26.126Z,11.56
2023-01-15T04:25:52.859Z,11.57
2023-01-15T04:28:19.578Z,11.54
2023-01-15T04:30:46.470Z,11.52
2023-01-15T04:33:13.470Z,11.33
2023-01-15T04:35:40.178Z,10.93
2023-01-15T04:38:06.880Z,10.60
2023-01-15T04:40:52.265Z,10.27
2023-01-15T04:43:37.514Z,10.01
2023-01-15T04:46:04.410Z,9.85
2023-01-15T04:48:31.541Z,9.77
2023-01-15T04:51:03.404Z,9.67
2023-01-15T04:53:30.111Z,9.56
2023-01-15T04:56:02.018Z,9.49
2023-01-15T04:58:29.229Z,9.38
2023-01-15T05:00:56.420Z,9.30
2023-01-15T05:03:23.464Z,9.23
2023-01-15T05:05:50.652Z,9.22
2023-01-15T05:08:17.459Z,9.17
2023-01-15T05:10:44.326Z,9.12
2023-01-15T05:13:11.136Z,9.08
2023-01-15T05:15:38.903Z,9.03
2023-01-15T05:18:05.772Z,8.94
2023-01-15T05:20:36.544Z,8.94
2023-01-15T05:23:03.270Z,8.85
2023-01-15T05:25:29.950Z,8.78
2023-01-15T05:27:56.624Z,8.81
2023-01-15T05:30:23.476Z,8.71
2023-01-15T05:32:50.181Z,8.74
2023-01-15T05:35:17.192Z,8.73
2023-01-15T05:37:43.966Z,8.72
2023-01-15T05:40:11.348Z,8.70
2023-01-15T05:42:38.098Z,8.66
2023-01-15T05:45:05.184Z,8.62
2023-01-15T05:47:31.935Z,8.59
2023-01-15T05:49:58.806Z,8.54
2023-01-15T05:52:25.457Z,8.49
2023-01-15T05:54:52.225Z,8.49
2023-01-15T05:57:19.033Z,8.37
2023-01-15T05:59:45.780Z,8.33
2023-01-15T06:02:12.449Z,8.34
2023-01-15T06:04:39.128Z,8.25
2023-01-15T06:07:05.858Z,8.21
2023-01-15T06:09:32.683Z,8.17
2023-01-15T06:11:59.413Z,8.16
2023-01-15T06:14:26.319Z,8.11
2023-01-15T06:16:53.153Z,8.04
2023-01-15T06:19:20.055Z,7.93
2023-01-15T06:21:46.823Z,7.89
2023-01-15T06:24:16.382Z,7.89
2023-01-15T06:26:43.391Z,7.87
2023-01-15T06:29:10.196Z,7.77
2023-01-15T06:31:37.246Z,7.71
2023-01-15T06:34:04.119Z,7.55
2023-01-15T06:36:30.893Z,7.55
2023-01-15T06:38:58.099Z,7.51
2023-01-15T06:41:45.731Z,7.49
2023-01-15T06:44:33.138Z,7.43
2023-01-15T06:47:22.232Z,7.49
2023-01-15T06:49:56.341Z,7.50
2023-01-15T06:52:29.905Z,7.44
2023-01-15T06:54:56.724Z,7.44
2023-01-15T06:57:23.641Z,7.44
2023-01-15T06:59:51.242Z,7.36
2023-01-15T07:02:18.758Z,7.30
2023-01-15T07:04:47.001Z,7.23
2023-01-15T07:07:18.607Z,7.24
2023-01-15T07:09:45.534Z,7.22
2023-01-15T07:12:12.294Z,7.30
2023-01-15T07:14:39.409Z,7.30
2023-01-15T07:17:06.706Z,7.31
2023-01-15T07:19:33.586Z,7.29
2023-01-15T07:22:00.372Z,7.27
2023-01-15T07:24:27.156Z,7.29
2023-01-15T07:26:53.944Z,7.29
2023-01-15T07:29:21.862Z,7.24
2023-01-15T07:31:49.346Z,7.23
2023-01-15T07:34:16.450Z,7.23
2023-01-15T07:36:43.507Z,7.25
2023-01-15T07:39:11.369Z,7.28
2023-01-15T07:41:57.303Z,7.25
2023-01-15T07:45:11.299Z,7.19
2023-01-15T07:47:58.687Z,7.13
2023-01-15T07:50:25.459Z,7.15
2023-01-15T07:52:53.756Z,7.11
2023-01-15T07:55:21.685Z,7.08
2023-01-15T07:57:48.488Z,7.02
2023-01-15T08:00:20.508Z,7.06
2023-01-15T08:02:49.709Z,7.01
2023-01-15T08:05:17.644Z,7.00
2023-01-15T08:07:45.298Z,6.93
2023-01-15T08:10:13.764Z,6.97
2023-01-15T08:13:00.890Z,6.97
2023-01-15T08:15:32.059Z,6.82
2023-01-15T08:17:59.324Z,6.74
2023-01-15T08:20:27.058Z,6.69
2023-01-15T08:22:53.975Z,6.67
2023-01-15T08:25:23.657Z,6.70
2023-01-15T08:27:51.539Z,6.70
2023-01-15T08:30:21.076Z,6.70
2023-01-15T08:32:47.836Z,6.60
2023-01-15T08:35:14.622Z,6.65
2023-01-15T08:37:42.633Z,6.62
2023-01-15T08:40:12.481Z,6.61
2023-01-15T08:42:39.845Z,6.58
2023-01-15T08:45:07.509Z,6.49
2023-01-15T08:47:34.343Z,6.51
2023-01-15T08:50:01.069Z,6.42
2023-01-15T08:52:27.824Z,6.47
2023-01-15T08:54:54.664Z,6.48
2023-01-15T08:57:21.947Z,6.51
2023-01-15T08:59:48.783Z,6.47
2023-01-15T09:02:16.286Z,6.44
2023-01-15T09:04:43.176Z,6.48
2023-01-15T09:07:11.039Z,6.52
2023-01-15T09:09:37.840Z,6.53
2023-01-15T09:12:04.816Z,6.51
2023-01-15T09:14:56.080Z,6.48
2023-01-15T09:17:18.141Z,6.41
2023-01-15T09:19:47.059Z,6.40
2023-01-15T09:22:13.858Z,6.36
2023-01-15T09:24:40.763Z,6.33
2023-01-15T09:27:07.514Z,6.35
2023-01-15T09:29:37.430Z,6.36
2023-01-15T09:32:04.511Z,6.36
2023-01-15T09:34:31.190Z,6.27
2023-01-15T09:36:57.926Z,6.21
2023-01-15T09:39:24.581Z,6.16
2023-01-15T09:42:16.122Z,6.09
2023-01-15T09:45:10.371Z,6.09
2023-01-15T09:47:40.803Z,6.14
2023-01-15T09:50:45.166Z,6.12
2023-01-15T09:53:39.909Z,5.97
2023-01-15T09:56:16.429Z,5.96
2023-01-15T09:58:43.983Z,5.99
2023-01-15T10:01:18.758Z,5.97
2023-01-15T10:03:51.852Z,5.86
2023-01-15T10:06:28.550Z,5.75
2023-01-15T10:09:13.160Z,5.62
2023-01-15T10:12:14.436Z,5.62
2023-01-15T10:14:52.193Z,5.53
2023-01-15T10:17:28.711Z,5.48
2023-01-15T10:19:57.509Z,5.44
2023-01-15T10:22:39.129Z,5.46
2023-01-15T10:25:14.583Z,5.40
2023-01-15T10:27:47.442Z,5.35
2023-01-15T10:30:29.672Z,5.31
2023-01-15T10:33:03.379Z,5.30
2023-01-15T10:35:40.921Z,5.19
2023-01-15T10:38:25.528Z,5.23
2023-01-15T10:41:06.599Z,5.15
2023-01-15T10:43:52.394Z,5.12
2023-01-15T10:46:24.475Z,5.02
2023-01-15T10:49:06.223Z,5.00
2023-01-15T10:51:47.438Z,4.91
2023-01-15T10:54:36.425Z,4.89
2023-01-15T10:57:20.949Z,4.93
2023-01-15T10:59:47.777Z,4.93
2023-01-15T11:02:23.244Z,4.88
2023-01-15T11:04:50.132Z,4.88
2023-01-15T11:07:18.046Z,4.91
2023-01-15T11:09:45.169Z,4.83
2023-01-15T11:12:58.719Z,4.70
2023-01-15T11:15:49.354Z,4.60
2023-01-15T11:18:45.427Z,4.58
2023-01-15T11:21:15.302Z,4.61
2023-01-15T11:23:42.598Z,4.65
2023-01-15T11:26:10.535Z,4.78
2023-01-15T11:28:43.526Z,4.74
2023-01-15T11:31:12.626Z,4.74
2023-01-15T11:33:40.164Z,4.63
2023-01-15T11:36:20.026Z,4.58
2023-01-15T11:38:49.215Z,4.63
2023-01-15T11:41:24.242Z,4.67
2023-01-15T11:44:17.505Z,4.69
2023-01-15T11:47:06.190Z,4.66
2023-01-15T11:49:51.612Z,4.71
2023-01-15T11:52:26.109Z,4.80
2023-01-15T11:54:55.237Z,4.83
2023-01-15T11:57:28.210Z,4.85
2023-01-15T11:59:57.196Z,4.86
2023-01-15T12:02:38.964Z,4.98
2023-01-15T12:05:07.173Z,5.06
2023-01-15T12:07:42.750Z,5.10
2023-01-15T12:10:15.618Z,5.09
2023-01-15T12:13:32.213Z,5.21
2023-01-15T12:16:12.829Z,5.21
2023-01-15T12:19:06.136Z,5.27
2023-01-15T12:21:52.353Z,5.30
2023-01-15T12:24:34.816Z,5.43
2023-01-15T12:27:20.376Z,5.54
2023-01-15T12:29:59.504Z,5.52
2023-01-15T12:32:42.023Z,5.55
2023-01-15T12:35:45.893Z,5.61
2023-01-15T12:38:40.059Z,5.70
2023-01-15T12:41:22.279Z,5.69
2023-01-15T12:47:00.102Z,5.80
2023-01-15T12:49:40.634Z,5.81
2023-01-15T12:52:20.985Z,5.81
2023-01-15T12:54:58.069Z,5.91
2023-01-15T12:57:37.234Z,6.07
2023-01-15T13:00:13.927Z,6.04
2023-01-15T13:03:01.965Z,6.07
2023-01-15T13:05:33.253Z,6.17
2023-01-15T13:08:19.327Z,6.33
2023-01-15T13:10:52.411Z,6.44
2023-01-15T13:13:25.108Z,6.48
2023-01-15T13:16:01.957Z,6.48
2023-01-15T13:18:44.405Z,6.49
2023-01-15T13:21:15.578Z,6.56
2023-01-15T13:24:11.077Z,6.56
2023-01-15T13:30:48.742Z,6.56
2023-01-15T13:33:27.609Z,6.56
2023-01-15T13:36:14.323Z,6.68
2023-01-15T13:38:45.764Z,6.78
2023-01-15T13:41:40.651Z,6.74
2023-01-15T13:44:19.337Z,6.72
2023-01-15T13:47:04.400Z,6.76
2023-01-15T13:49:52.720Z,6.88
2023-01-15T13:52:42.996Z,6.82
2023-01-15T13:55:23.246Z,6.76
2023-01-15T13:57:50.519Z,6.91
2023-01-15T14:00:38.157Z,6.76
2023-01-15T14:03:35.372Z,6.91
2023-01-15T14:06:12.132Z,6.95
2023-01-15T14:08:45.329Z,6.87
2023-01-15T14:11:34.947Z,6.84
2023-01-15T14:14:43.644Z,6.94
2023-01-15T14:17:40.806Z,6.83
2023-01-15T14:20:11.889Z,6.81
2023-01-15T14:23:01.609Z,6.75
2023-01-15T14:25:54.829Z,6.75
2023-01-15T14:29:01.981Z,6.73
2023-01-15T14:31:29.287Z,6.58
2023-01-15T14:34:11.340Z,6.58
2023-01-15T14:36:52.116Z,6.57
2023-01-15T14:39:58.519Z,6.61
2023-01-15T14:42:54.413Z,6.62
2023-01-15T14:45:25.601Z,6.62
2023-01-15T14:47:58.654Z,6.59
2023-01-15T14:50:55.022Z,6.55
2023-01-15T14:53:32.814Z,6.43
2023-01-15T14:56:14.615Z,6.51
2023-01-15T14:58:48.306Z,6.46
2023-01-15T15:01:21.562Z,6.44
2023-01-15T15:04:15.566Z,6.44
2023-01-15T15:07:25.809Z,6.38
2023-01-15T15:13:34.637Z,6.21
2023-01-15T15:16:14.097Z,6.26
2023-01-15T15:19:28.470Z,6.29
2023-01-15T15:21:59.415Z,6.29
2023-01-15T15:24:33.412Z,6.31
2023-01-15T15:27:22.303Z,6.39
2023-01-15T15:29:49.741Z,6.29
2023-01-15T15:32:23.222Z,6.25
2023-01-15T15:34:52.909Z,6.28
2023-01-15T15:37:24.780Z,6.25
2023-01-15T15:39:59.521Z,6.28
2023-01-15T15:42:50.416Z,6.25
2023-01-15T15:45:38.190Z,6.20
2023-01-15T15:48:40.080Z,6.10
2023-01-15T15:51:25.350Z,6.13
2023-01-15T15:54:21.082Z,6.11
2023-01-15T15:57:03.433Z,6.08
2023-01-15T15:59:38.627Z,6.05
2023-01-15T16:02:22.987Z,6.05
2023-01-15T16:04:52.905Z,6.02
2023-01-15T16:07:29.568Z,6.04
2023-01-15T16:10:02.820Z,6.13
2023-01-15T16:12:33.264Z,6.09
2023-01-15T16:15:00.880Z,5.99
2023-01-15T16:17:28.252Z,5.92
2023-01-15T16:19:56.707Z,5.93
2023-01-15T16:22:23.582Z,5.91
2023-01-15T16:24:56.202Z,5.93
2023-01-15T16:27:33.504Z,5.94
2023-01-15T16:30:00.434Z,5.91
2023-01-15T16:32:30.919Z,5.94
2023-01-15T16:35:07.652Z,5.94
2023-01-15T16:37:36.255Z,5.92
2023-01-15T16:40:05.625Z,5.92
2023-01-15T16:42:40.190Z,5.89
2023-01-15T16:45:23.790Z,5.89
2023-01-15T16:48:10.519Z,5.92
2023-01-15T16:50:44.883Z,5.87
2023-01-15T16:53:42.426Z,5.82
2023-01-15T16:56:42.099Z,5.81
2023-01-15T16:59:17.773Z,5.83
2023-01-15T17:01:52.290Z,5.83
2023-01-15T17:04:34.465Z,5.79
2023-01-15T17:07:08.800Z,5.78
2023-01-15T17:09:37.881Z,5.79
2023-01-15T17:12:19.118Z,5.81
2023-01-15T17:14:45.894Z,5.84
2023-01-15T17:17:21.750Z,5.84
2023-01-15T17:19:50.363Z,5.80
2023-01-15T17:22:25.030Z,5.78
2023-01-15T17:24:54.767Z,5.78
2023-01-15T17:27:24.059Z,5.81
2023-01-15T17:29:51.535Z,5.78
2023-01-15T17:32:30.633Z,5.77
2023-01-15T17:34:57.405Z,5.76
2023-01-15T17:37:25.374Z,5.78
2023-01-15T17:39:52.214Z,5.78
2023-01-15T17:42:20.438Z,5.77
2023-01-15T17:44:47.436Z,5.76
2023-01-15T17:47:14.141Z,5.74
2023-01-15T17:49:41.165Z,5.76
2023-01-15T17:52:18.498Z,5.75
2023-01-15T17:55:03.781Z,5.71
2023-01-15T17:57:50.515Z,5.70
2023-01-15T18:00:36.374Z,5.77
2023-01-15T18:03:22.947Z,5.76
2023-01-15T18:05:52.935Z,5.73
2023-01-15T18:08:20.017Z,5.73
2023-01-15T18:10:49.840Z,5.75
2023-01-15T18:13:17.066Z,5.74
2023-01-15T18:15:44.053Z,5.80
2023-01-15T18:18:11.549Z,5.78
2023-01-15T18:20:39.162Z,5.78
2023-01-15T18:23:07.537Z,5.80
2023-01-15T18:25:35.327Z,5.76
2023-01-15T18:28:02.356Z,5.78
2023-01-15T18:30:29.883Z,5.82
2023-01-15T18:32:56.647Z,5.81
2023-01-15T18:35:24.007Z,5.84
2023-01-15T18:37:50.879Z,5.82
2023-01-15T18:40:18.095Z,5.84
2023-01-15T18:43:07.291Z,5.85
2023-01-15T18:45:53.180Z,5.84
2023-01-15T18:48:30.154Z,5.84
2023-01-15T18:50:58.929Z,5.82
2023-01-15T18:53:28.001Z,5.83
2023-01-15T18:56:02.288Z,5.83
2023-01-15T18:58:29.190Z,5.79
2023-01-15T19:00:56.251Z,5.83
2023-01-15T19:03:23.298Z,5.84
2023-01-15T19:05:50.813Z,5.83
2023-01-15T19:08:17.874Z,5.80
2023-01-15T19:10:48.179Z,5.81
2023-01-15T19:13:18.119Z,5.81
2023-01-15T19:16:03.672Z,5.79
2023-01-15T19:18:45.577Z,5.81
2023-01-15T19:21:13.041Z,5.83
2023-01-15T19:23:40.038Z,5.82
2023-01-15T19:26:07.001Z,5.75
2023-01-15T19:28:34.105Z,5.73
2023-01-15T19:31:19.675Z,5.66
2023-01-15T19:33:46.646Z,5.58
2023-01-15T19:36:13.650Z,5.57
2023-01-15T19:38:41.436Z,5.51
2023-01-15T19:41:30.989Z,5.49
2023-01-15T19:44:16.569Z,5.49
2023-01-15T19:47:02.420Z,5.48
2023-01-15T19:49:55.835Z,5.48
2023-01-15T19:52:34.719Z,5.44
2023-01-15T19:55:08.253Z,5.43
2023-01-15T19:57:35.137Z,5.44
2023-01-15T20:00:02.113Z,5.43
2023-01-15T20:02:28.953Z,5.40
2023-01-15T20:04:55.702Z,5.39
2023-01-15T20:07:22.511Z,5.37
2023-01-15T20:09:49.327Z,5.36
2023-01-15T20:12:34.798Z,5.33
2023-01-15T20:15:02.014Z,5.34
2023-01-15T20:17:30.162Z,5.37
2023-01-15T20:19:58.008Z,5.31
2023-01-15T20:22:26.961Z,5.26
2023-01-15T20:24:56.793Z,5.25
2023-01-15T20:27:23.919Z,5.29
2023-01-15T20:30:00.670Z,5.29
2023-01-15T20:32:27.620Z,5.33
2023-01-15T20:34:54.934Z,5.35
2023-01-15T20:37:23.187Z,5.34
2023-01-15T20:39:53.631Z,5.33
2023-01-15T20:42:39.054Z,5.33
2023-01-15T20:45:11.228Z,5.37
2023-01-15T20:48:00.883Z,5.41
2023-01-15T20:50:31.030Z,5.44
2023-01-15T20:52:58.696Z,5.41
2023-01-15T20:55:54.799Z,5.41
2023-01-15T20:58:24.191Z,5.34
2023-01-15T21:00:51.929Z,5.34
2023-01-15T21:03:18.997Z,5.35
2023-01-15T21:05:47.715Z,5.39
2023-01-15T21:08:15.995Z,5.38
2023-01-15T21:10:43.025Z,5.40
2023-01-15T21:13:10.196Z,5.44
2023-01-15T21:15:37.116Z,5.43
2023-01-15T21:18:06.204Z,5.42
2023-01-15T21:20:33.107Z,5.40
2023-01-15T21:23:00.012Z,5.40
2023-01-15T21:25:26.775Z,5.38
2023-01-15T21:27:53.599Z,5.37
2023-01-15T21:30:20.906Z,5.39
2023-01-15T21:32:48.862Z,5.41
2023-01-15T21:35:15.886Z,5.37
2023-01-15T21:37:43.148Z,5.34
2023-01-15T21:40:10.672Z,5.35
2023-01-15T21:42:56.131Z,5.41
2023-01-15T21:45:22.905Z,5.38
2023-01-15T21:47:49.778Z,5.40
2023-01-15T21:50:17.953Z,5.36
2023-01-15T21:52:44.823Z,5.39
2023-01-15T21:55:13.120Z,5.41
2023-01-15T21:57:40.102Z,5.40
2023-01-15T22:00:08.181Z,5.43
2023-01-15T22:02:35.835Z,5.40
2023-01-15T22:05:04.365Z,5.44
2023-01-15T22:07:31.250Z,5.46
2023-01-15T22:09:58.002Z,5.47
2023-01-15T22:12:24.697Z,5.47
2023-01-15T22:14:53.616Z,5.46
2023-01-15T22:17:20.620Z,5.44
2023-01-15T22:19:47.395Z,5.47
2023-01-15T22:22:14.322Z,5.49
2023-01-15T22:24:41.235Z,5.53
2023-01-15T22:27:12.076Z,5.53
2023-01-15T22:29:40.776Z,5.50
2023-01-15T22:32:10.390Z,5.53
2023-01-15T22:34:37.206Z,5.55
2023-01-15T22:37:04.078Z,5.58
2023-01-15T22:39:31.076Z,5.58
2023-01-15T22:42:16.395Z,5.54
2023-01-15T22:44:45.106Z,5.53
2023-01-15T22:47:12.651Z,5.53
2023-01-15T22:49:39.401Z,5.52
2023-01-15T22:52:06.359Z,5.57
2023-01-15T22:54:33.610Z,5.59
2023-01-15T22:57:00.607Z,5.59
2023-01-15T22:59:27.479Z,5.65
2023-01-15T23:01:54.416Z,5.65
2023-01-15T23:04:24.274Z,5.64
2023-01-15T23:06:52.546Z,5.65
2023-01-15T23:09:22.185Z,5.63
2023-01-15T23:11:51.276Z,5.61
2023-01-15T23:14:20.565Z,5.63
2023-01-15T23:16:47.595Z,5.67
2023-01-15T23:19:14.608Z,5.67
2023-01-15T23:21:41.945Z,5.65
2023-01-15T23:24:10.733Z,5.66
2023-01-15T23:26:37.577Z,5.65
2023-01-15T23:29:04.858Z,5.70
2023-01-15T23:31:31.873Z,5.67
2023-01-15T23:33:59.418Z,5.65
2023-01-15T23:36:26.765Z,5.62
2023-01-15T23:38:53.765Z,5.64
2023-01-15T23:41:43.068Z,5.65
2023-01-15T23:44:35.505Z,5.67
2023-01-15T23:47:02.488Z,5.67
2023-01-15T23:49:29.800Z,5.68
2023-01-15T23:51:56.664Z,5.68
2023-01-15T23:54:27.440Z,5.66
2023-01-15T23:56:55.538Z,5.63
2023-01-15T23:59:22.352Z,5.64
